sensor_id;sensor_type;location;lat;lon;timestamp;temperature;humidity
5280;DHT22;2663;53.588;10.010;2024-01-10T00:01:56;-2.50;99.90
5280;DHT22;2663;53.588;10.010;2024-01-10T00:04:23;-2.40;99.90
5280;DHT22;2663;53.588;10.010;2024-01-10T00:06:49;-2.40;99.90
5280;DHT22;2663;53.588;10.010;2024-01-10T00:09:16;-2.40;99.90
5280;DHT22;2663;53.588;10.010;2024-01-10T00:11:43;-2.40;99.90
5280;DHT22;2663;53.588;10.010;2024-01-10T00:14:09;-2.30;99.90
5280;DHT22;2663;53.588;10.010;2024-01-10T00:16:37;-2.40;99.90
5280;DHT22;2663;53.588;10.010;2024-01-10T00:19:03;-2.40;99.90
5280;DHT22;2663;53.588;10.010;2024-01-10T00:21:30;-2.40;99.90
5280;DHT22;2663;53.588;10.010;2024-01-10T00:23:57;-2.40;99.90
5280;DHT22;2663;53.588;10.010;2024-01-10T00:26:24;-2.40;99.90
5280;DHT22;2663;53.588;10.010;2024-01-10T00:28:51;-2.60;99.90
5280;DHT22;2663;53.588;10.010;2024-01-10T00:31:18;-2.70;99.90
5280;DHT22;2663;53.588;10.010;2024-01-10T00:33:44;-2.70;99.90
5280;DHT22;2663;53.588;10.010;2024-01-10T00:36:12;-2.60;99.90
5280;DHT22;2663;53.588;10.010;2024-01-10T00:38:39;-2.60;99.90
5280;DHT22;2663;53.588;10.010;2024-01-10T00:41:06;-2.70;99.90
5280;DHT22;2663;53.588;10.010;2024-01-10T00:43:33;-2.10;99.90
5280;DHT22;2663;53.588;10.010;2024-01-10T00:46:00;-2.90;99.90
5280;DHT22;2663;53.588;10.010;2024-01-10T00:48:27;-2.80;99.90
5280;DHT22;2663;53.588;10.010;2024-01-10T00:50:53;-2.90;99.90
5280;DHT22;2663;53.588;10.010;2024-01-10T00:53:20;-2.80;99.90
5280;DHT22;2663;53.588;10.010;2024-01-10T00:55:48;-2.70;99.90
5280;DHT22;2663;53.588;10.010;2024-01-10T00:58:14;-2.80;99.90
5280;DHT22;2663;53.588;10.010;2024-01-10T01:00:41;-2.80;99.90
5280;DHT22;2663;53.588;10.010;2024-01-10T01:03:08;-2.80;99.90
5280;DHT22;2663;53.588;10.010;2024-01-10T01:05:35;-2.70;99.90
5280;DHT22;2663;53.588;10.010;2024-01-10T01:08:02;-3.00;99.90
5280;DHT22;2663;53.588;10.010;2024-01-10T01:10:28;-2.90;99.90
5280;DHT22;2663;53.588;10.010;2024-01-10T01:12:55;-3.10;99.90
5280;DHT22;2663;53.588;10.010;2024-01-10T01:15:22;-3.00;99.90
5280;DHT22;2663;53.588;10.010;2024-01-10T01:17:49;-2.80;99.90
5280;DHT22;2663;53.588;10.010;2024-01-10T01:20:15;-2.70;99.90
5280;DHT22;2663;53.588;10.010;2024-01-10T01:22:42;-2.80;99.90
5280;DHT22;2663;53.588;10.010;2024-01-10T01:25:09;-2.80;99.90
5280;DHT22;2663;53.588;10.010;2024-01-10T01:27:36;-2.70;99.90
5280;DHT22;2663;53.588;10.010;2024-01-10T01:30:03;-2.70;99.90
5280;DHT22;2663;53.588;10.010;2024-01-10T01:32:30;-2.70;99.90
5280;DHT22;2663;53.588;10.010;2024-01-10T01:34:57;-2.70;99.90
5280;DHT22;2663;53.588;10.010;2024-01-10T01:37:24;-2.70;99.90
5280;DHT22;2663;53.588;10.010;2024-01-10T01:39:50;-2.70;99.90
5280;DHT22;2663;53.588;10.010;2024-01-10T01:42:17;-2.60;99.90
5280;DHT22;2663;53.588;10.010;2024-01-10T01:44:44;-2.60;99.90
5280;DHT22;2663;53.588;10.010;2024-01-10T01:47:11;-2.50;99.90
5280;DHT22;2663;53.588;10.010;2024-01-10T01:49:38;-2.30;99.90
5280;DHT22;2663;53.588;10.010;2024-01-10T01:52:05;-2.30;99.90
5280;DHT22;2663;53.588;10.010;2024-01-10T01:54:33;0.10;99.90
5280;DHT22;2663;53.588;10.010;2024-01-10T01:57:00;-2.50;99.90
5280;DHT22;2663;53.588;10.010;2024-01-10T01:59:27;-2.50;99.90
5280;DHT22;2663;53.588;10.010;2024-01-10T02:01:55;-2.40;99.90
5280;DHT22;2663;53.588;10.010;2024-01-10T02:04:23;-2.30;99.90
5280;DHT22;2663;53.588;10.010;2024-01-10T02:06:50;-2.40;99.90
5280;DHT22;2663;53.588;10.010;2024-01-10T02:09:17;-2.40;99.90
5280;DHT22;2663;53.588;10.010;2024-01-10T02:11:44;-2.50;99.90
5280;DHT22;2663;53.588;10.010;2024-01-10T02:14:10;-2.40;99.90
5280;DHT22;2663;53.588;10.010;2024-01-10T02:16:38;-2.40;99.90
5280;DHT22;2663;53.588;10.010;2024-01-10T02:19:21;-2.60;99.90
5280;DHT22;2663;53.588;10.010;2024-01-10T02:21:48;-2.60;99.90
5280;DHT22;2663;53.588;10.010;2024-01-10T02:24:15;-2.50;99.90
5280;DHT22;2663;53.588;10.010;2024-01-10T02:26:43;-2.50;99.90
5280;DHT22;2663;53.588;10.010;2024-01-10T02:29:09;-2.30;99.90
5280;DHT22;2663;53.588;10.010;2024-01-10T02:31:36;-0.50;99.90
5280;DHT22;2663;53.588;10.010;2024-01-10T02:34:03;-2.50;99.90
5280;DHT22;2663;53.588;10.010;2024-01-10T02:36:30;-2.60;99.90
5280;DHT22;2663;53.588;10.010;2024-01-10T02:38:57;-2.40;99.90
5280;DHT22;2663;53.588;10.010;2024-01-10T02:41:23;-2.40;99.90
5280;DHT22;2663;53.588;10.010;2024-01-10T02:43:50;-2.40;99.90
5280;DHT22;2663;53.588;10.010;2024-01-10T02:46:17;-2.40;99.90
5280;DHT22;2663;53.588;10.010;2024-01-10T02:48:45;-2.60;99.90
5280;DHT22;2663;53.588;10.010;2024-01-10T02:51:12;-2.60;99.90
5280;DHT22;2663;53.588;10.010;2024-01-10T02:53:39;-2.50;99.90
5280;DHT22;2663;53.588;10.010;2024-01-10T02:56:06;-2.60;99.90
5280;DHT22;2663;53.588;10.010;2024-01-10T02:58:33;-2.50;99.90
5280;DHT22;2663;53.588;10.010;2024-01-10T03:01:00;-2.40;99.90
5280;DHT22;2663;53.588;10.010;2024-01-10T03:03:28;-2.30;99.90
5280;DHT22;2663;53.588;10.010;2024-01-10T03:05:54;-2.30;99.90
5280;DHT22;2663;53.588;10.010;2024-01-10T03:08:21;-2.20;99.90
5280;DHT22;2663;53.588;10.010;2024-01-10T03:10:48;-2.00;99.90
5280;DHT22;2663;53.588;10.010;2024-01-10T03:13:14;-2.00;99.90
5280;DHT22;2663;53.588;10.010;2024-01-10T03:15:41;-2.00;99.90
5280;DHT22;2663;53.588;10.010;2024-01-10T03:18:08;-2.00;99.90
5280;DHT22;2663;53.588;10.010;2024-01-10T03:20:35;-1.90;99.90
5280;DHT22;2663;53.588;10.010;2024-01-10T03:23:02;-1.90;99.90
5280;DHT22;2663;53.588;10.010;2024-01-10T03:25:29;-1.80;99.90
5280;DHT22;2663;53.588;10.010;2024-01-10T03:27:55;-1.80;99.90
5280;DHT22;2663;53.588;10.010;2024-01-10T03:30:22;-1.80;99.90
5280;DHT22;2663;53.588;10.010;2024-01-10T03:32:51;-1.60;99.90
5280;DHT22;2663;53.588;10.010;2024-01-10T03:35:18;-1.60;99.90
5280;DHT22;2663;53.588;10.010;2024-01-10T03:37:44;-0.70;99.90
5280;DHT22;2663;53.588;10.010;2024-01-10T03:40:12;-1.60;99.90
5280;DHT22;2663;53.588;10.010;2024-01-10T03:42:38;-1.50;99.90
5280;DHT22;2663;53.588;10.010;2024-01-10T03:45:05;-1.50;99.90
5280;DHT22;2663;53.588;10.010;2024-01-10T03:47:32;-1.50;99.90
5280;DHT22;2663;53.588;10.010;2024-01-10T03:49:59;-0.30;99.90
5280;DHT22;2663;53.588;10.010;2024-01-10T03:52:26;-1.50;99.90
5280;DHT22;2663;53.588;10.010;2024-01-10T03:54:52;-1.60;99.90
5280;DHT22;2663;53.588;10.010;2024-01-10T03:57:19;-1.60;99.90
5280;DHT22;2663;53.588;10.010;2024-01-10T03:59:46;-1.60;99.90
5280;DHT22;2663;53.588;10.010;2024-01-10T04:02:12;-1.70;99.90
5280;DHT22;2663;53.588;10.010;2024-01-10T04:04:39;-1.70;99.90
5280;DHT22;2663;53.588;10.010;2024-01-10T04:07:06;-1.70;99.90
5280;DHT22;2663;53.588;10.010;2024-01-10T04:09:33;-1.60;99.90
5280;DHT22;2663;53.588;10.010;2024-01-10T04:11:59;-1.70;99.90
5280;DHT22;2663;53.588;10.010;2024-01-10T04:14:26;-1.80;99.90
5280;DHT22;2663;53.588;10.010;2024-01-10T04:16:53;-1.80;99.90
5280;DHT22;2663;53.588;10.010;2024-01-10T04:19:20;-1.70;99.90
5280;DHT22;2663;53.588;10.010;2024-01-10T04:21:47;-1.60;99.90
5280;DHT22;2663;53.588;10.010;2024-01-10T04:24:14;-1.60;99.90
5280;DHT22;2663;53.588;10.010;2024-01-10T04:26:41;-1.30;99.90
5280;DHT22;2663;53.588;10.010;2024-01-10T04:29:08;-1.50;99.90
5280;DHT22;2663;53.588;10.010;2024-01-10T04:31:35;-1.40;99.90
5280;DHT22;2663;53.588;10.010;2024-01-10T04:34:02;-1.40;99.90
5280;DHT22;2663;53.588;10.010;2024-01-10T04:36:29;-1.30;99.90
5280;DHT22;2663;53.588;10.010;2024-01-10T04:38:56;-1.20;99.90
5280;DHT22;2663;53.588;10.010;2024-01-10T04:41:23;-1.20;99.90
5280;DHT22;2663;53.588;10.010;2024-01-10T04:43:50;0.50;99.90
5280;DHT22;2663;53.588;10.010;2024-01-10T04:46:16;-1.10;99.90
5280;DHT22;2663;53.588;10.010;2024-01-10T04:48:43;-1.30;99.90
5280;DHT22;2663;53.588;10.010;2024-01-10T04:51:10;-1.10;99.90
5280;DHT22;2663;53.588;10.010;2024-01-10T04:53:37;-1.10;99.90
5280;DHT22;2663;53.588;10.010;2024-01-10T04:56:03;-1.00;99.90
5280;DHT22;2663;53.588;10.010;2024-01-10T04:58:30;-1.10;99.90
5280;DHT22;2663;53.588;10.010;2024-01-10T05:00:59;-1.10;99.90
5280;DHT22;2663;53.588;10.010;2024-01-10T05:03:26;-1.10;99.90
5280;DHT22;2663;53.588;10.010;2024-01-10T05:05:53;-1.00;99.90
5280;DHT22;2663;53.588;10.010;2024-01-10T05:08:19;-1.10;99.90
5280;DHT22;2663;53.588;10.010;2024-01-10T05:10:47;-1.10;99.90
5280;DHT22;2663;53.588;10.010;2024-01-10T05:13:14;-1.00;99.90
5280;DHT22;2663;53.588;10.010;2024-01-10T05:15:41;-1.00;99.90
5280;DHT22;2663;53.588;10.010;2024-01-10T05:18:07;-1.10;99.90
5280;DHT22;2663;53.588;10.010;2024-01-10T05:20:34;-1.20;99.90
5280;DHT22;2663;53.588;10.010;2024-01-10T05:23:01;-1.10;99.90
5280;DHT22;2663;53.588;10.010;2024-01-10T05:25:28;-1.10;99.90
5280;DHT22;2663;53.588;10.010;2024-01-10T05:27:55;-1.20;99.90
5280;DHT22;2663;53.588;10.010;2024-01-10T05:30:22;-1.00;99.90
5280;DHT22;2663;53.588;10.010;2024-01-10T05:32:53;-0.90;99.90
5280;DHT22;2663;53.588;10.010;2024-01-10T05:35:20;-1.10;99.90
5280;DHT22;2663;53.588;10.010;2024-01-10T05:37:47;-1.10;99.90
5280;DHT22;2663;53.588;10.010;2024-01-10T05:40:14;-1.10;99.90
5280;DHT22;2663;53.588;10.010;2024-01-10T05:42:41;0.40;99.90
5280;DHT22;2663;53.588;10.010;2024-01-10T05:45:08;-1.10;99.90
5280;DHT22;2663;53.588;10.010;2024-01-10T05:47:35;-1.20;99.90
5280;DHT22;2663;53.588;10.010;2024-01-10T05:50:02;-1.20;99.90
5280;DHT22;2663;53.588;10.010;2024-01-10T05:52:30;-1.30;99.90
5280;DHT22;2663;53.588;10.010;2024-01-10T05:54:57;-1.40;99.90
5280;DHT22;2663;53.588;10.010;2024-01-10T05:57:24;-1.50;99.90
5280;DHT22;2663;53.588;10.010;2024-01-10T05:59:51;-1.50;99.90
5280;DHT22;2663;53.588;10.010;2024-01-10T06:02:23;-1.70;99.90
5280;DHT22;2663;53.588;10.010;2024-01-10T06:04:51;-1.60;99.90
5280;DHT22;2663;53.588;10.010;2024-01-10T06:07:18;-1.50;99.90
5280;DHT22;2663;53.588;10.010;2024-01-10T06:09:44;-1.40;99.90
5280;DHT22;2663;53.588;10.010;2024-01-10T06:12:11;-1.30;99.90
5280;DHT22;2663;53.588;10.010;2024-01-10T06:14:38;-1.30;99.90
5280;DHT22;2663;53.588;10.010;2024-01-10T06:17:05;-1.30;99.90
5280;DHT22;2663;53.588;10.010;2024-01-10T06:19:32;-0.40;99.90
5280;DHT22;2663;53.588;10.010;2024-01-10T06:21:59;-1.50;99.90
5280;DHT22;2663;53.588;10.010;2024-01-10T06:24:26;-1.50;99.90
5280;DHT22;2663;53.588;10.010;2024-01-10T06:26:53;-1.40;99.90
5280;DHT22;2663;53.588;10.010;2024-01-10T06:29:20;-1.50;99.90
5280;DHT22;2663;53.588;10.010;2024-01-10T06:31:47;-1.50;99.90
5280;DHT22;2663;53.588;10.010;2024-01-10T06:34:14;-1.40;99.90
5280;DHT22;2663;53.588;10.010;2024-01-10T06:36:41;-1.30;99.90
5280;DHT22;2663;53.588;10.010;2024-01-10T06:39:09;-1.50;99.90
5280;DHT22;2663;53.588;10.010;2024-01-10T06:41:39;-1.60;99.90
5280;DHT22;2663;53.588;10.010;2024-01-10T06:44:06;-1.50;99.90
5280;DHT22;2663;53.588;10.010;2024-01-10T06:46:33;-1.20;99.90
5280;DHT22;2663;53.588;10.010;2024-01-10T06:49:00;-2.50;99.90
5280;DHT22;2663;53.588;10.010;2024-01-10T06:51:27;-1.20;99.90
5280;DHT22;2663;53.588;10.010;2024-01-10T06:53:53;-1.10;99.90
5280;DHT22;2663;53.588;10.010;2024-01-10T06:56:27;-1.00;99.90
5280;DHT22;2663;53.588;10.010;2024-01-10T06:58:53;-0.90;99.90
5280;DHT22;2663;53.588;10.010;2024-01-10T07:01:21;-0.80;99.90
5280;DHT22;2663;53.588;10.010;2024-01-10T07:03:48;-0.90;99.90
5280;DHT22;2663;53.588;10.010;2024-01-10T07:06:15;-1.10;99.90
5280;DHT22;2663;53.588;10.010;2024-01-10T07:08:43;-0.40;99.90
5280;DHT22;2663;53.588;10.010;2024-01-10T07:11:11;-1.20;99.90
5280;DHT22;2663;53.588;10.010;2024-01-10T07:13:38;-1.20;99.90
5280;DHT22;2663;53.588;10.010;2024-01-10T07:16:05;-1.40;99.90
5280;DHT22;2663;53.588;10.010;2024-01-10T07:18:32;-1.00;99.90
5280;DHT22;2663;53.588;10.010;2024-01-10T07:20:59;-1.20;99.90
5280;DHT22;2663;53.588;10.010;2024-01-10T07:23:26;-1.20;99.90
5280;DHT22;2663;53.588;10.010;2024-01-10T07:25:53;-1.30;99.90
5280;DHT22;2663;53.588;10.010;2024-01-10T07:28:20;-1.40;99.90
5280;DHT22;2663;53.588;10.010;2024-01-10T07:30:47;-1.10;99.90
5280;DHT22;2663;53.588;10.010;2024-01-10T07:33:14;-1.20;99.90
5280;DHT22;2663;53.588;10.010;2024-01-10T07:35:42;-1.30;99.90
5280;DHT22;2663;53.588;10.010;2024-01-10T07:38:09;-1.20;99.90
5280;DHT22;2663;53.588;10.010;2024-01-10T07:40:36;-1.20;99.90
5280;DHT22;2663;53.588;10.010;2024-01-10T07:43:03;-1.20;99.90
5280;DHT22;2663;53.588;10.010;2024-01-10T07:45:30;-1.20;99.90
5280;DHT22;2663;53.588;10.010;2024-01-10T07:47:57;-1.10;99.90
5280;DHT22;2663;53.588;10.010;2024-01-10T07:50:24;-1.10;99.90
5280;DHT22;2663;53.588;10.010;2024-01-10T07:52:54;0.30;99.90
5280;DHT22;2663;53.588;10.010;2024-01-10T07:55:20;-1.00;99.90
5280;DHT22;2663;53.588;10.010;2024-01-10T07:57:47;-0.70;99.90
5280;DHT22;2663;53.588;10.010;2024-01-10T08:00:14;-0.80;99.90
5280;DHT22;2663;53.588;10.010;2024-01-10T08:02:42;-0.70;99.90
5280;DHT22;2663;53.588;10.010;2024-01-10T08:05:09;-0.70;99.90
5280;DHT22;2663;53.588;10.010;2024-01-10T08:07:38;-0.60;99.90
5280;DHT22;2663;53.588;10.010;2024-01-10T08:10:07;-0.60;99.90
5280;DHT22;2663;53.588;10.010;2024-01-10T08:12:36;-0.60;99.90
5280;DHT22;2663;53.588;10.010;2024-01-10T08:15:03;-0.70;99.90
5280;DHT22;2663;53.588;10.010;2024-01-10T08:17:30;-0.60;99.90
5280;DHT22;2663;53.588;10.010;2024-01-10T08:19:56;-0.50;99.90
5280;DHT22;2663;53.588;10.010;2024-01-10T08:22:23;-0.50;99.90
5280;DHT22;2663;53.588;10.010;2024-01-10T08:24:53;-0.40;99.90
5280;DHT22;2663;53.588;10.010;2024-01-10T08:27:20;-0.30;99.90
5280;DHT22;2663;53.588;10.010;2024-01-10T08:29:47;-0.50;99.90
5280;DHT22;2663;53.588;10.010;2024-01-10T08:32:13;-0.60;99.90
5280;DHT22;2663;53.588;10.010;2024-01-10T08:34:41;-0.60;99.90
5280;DHT22;2663;53.588;10.010;2024-01-10T08:37:08;-0.80;99.90
5280;DHT22;2663;53.588;10.010;2024-01-10T08:39:35;-0.70;99.90
5280;DHT22;2663;53.588;10.010;2024-01-10T08:42:02;-0.90;99.90
5280;DHT22;2663;53.588;10.010;2024-01-10T08:44:29;-0.90;99.90
5280;DHT22;2663;53.588;10.010;2024-01-10T08:46:55;-0.80;99.90
5280;DHT22;2663;53.588;10.010;2024-01-10T08:49:22;-0.90;99.90
5280;DHT22;2663;53.588;10.010;2024-01-10T08:51:49;-0.80;99.90
5280;DHT22;2663;53.588;10.010;2024-01-10T08:54:16;-0.90;99.90
5280;DHT22;2663;53.588;10.010;2024-01-10T08:56:46;-1.00;99.90
5280;DHT22;2663;53.588;10.010;2024-01-10T08:59:13;-0.80;99.90
5280;DHT22;2663;53.588;10.010;2024-01-10T09:01:39;-0.90;99.90
5280;DHT22;2663;53.588;10.010;2024-01-10T09:04:06;-0.80;99.90
5280;DHT22;2663;53.588;10.010;2024-01-10T09:06:33;-0.80;99.90
5280;DHT22;2663;53.588;10.010;2024-01-10T09:09:00;-0.90;99.90
5280;DHT22;2663;53.588;10.010;2024-01-10T09:11:27;-0.90;99.90
5280;DHT22;2663;53.588;10.010;2024-01-10T09:13:54;-0.80;99.90
5280;DHT22;2663;53.588;10.010;2024-01-10T09:16:21;-0.70;99.90
5280;DHT22;2663;53.588;10.010;2024-01-10T09:18:47;-0.60;99.90
5280;DHT22;2663;53.588;10.010;2024-01-10T09:21:19;-0.50;99.90
5280;DHT22;2663;53.588;10.010;2024-01-10T09:23:46;-0.50;99.90
5280;DHT22;2663;53.588;10.010;2024-01-10T09:26:14;-0.30;99.90
5280;DHT22;2663;53.588;10.010;2024-01-10T09:28:40;-0.50;99.90
5280;DHT22;2663;53.588;10.010;2024-01-10T09:31:07;-0.70;99.90
5280;DHT22;2663;53.588;10.010;2024-01-10T09:33:34;-0.70;99.90
5280;DHT22;2663;53.588;10.010;2024-01-10T09:36:01;-0.80;99.90
5280;DHT22;2663;53.588;10.010;2024-01-10T09:38:28;-0.80;99.90
5280;DHT22;2663;53.588;10.010;2024-01-10T09:40:59;-0.70;99.90
5280;DHT22;2663;53.588;10.010;2024-01-10T09:43:32;-0.50;99.90
5280;DHT22;2663;53.588;10.010;2024-01-10T09:46:02;-0.40;99.90
5280;DHT22;2663;53.588;10.010;2024-01-10T09:48:30;-0.50;99.90
5280;DHT22;2663;53.588;10.010;2024-01-10T09:50:57;-0.60;99.90
5280;DHT22;2663;53.588;10.010;2024-01-10T09:53:25;-2.80;99.90
5280;DHT22;2663;53.588;10.010;2024-01-10T09:55:53;-0.80;99.90
5280;DHT22;2663;53.588;10.010;2024-01-10T09:58:24;-0.90;99.90
5280;DHT22;2663;53.588;10.010;2024-01-10T10:00:53;0.90;99.90
5280;DHT22;2663;53.588;10.010;2024-01-10T10:03:21;0.10;99.90
5280;DHT22;2663;53.588;10.010;2024-01-10T10:05:48;0.20;99.90
5280;DHT22;2663;53.588;10.010;2024-01-10T10:08:15;0.50;99.90
5280;DHT22;2663;53.588;10.010;2024-01-10T10:10:48;0.80;99.90
5280;DHT22;2663;53.588;10.010;2024-01-10T10:13:28;1.20;99.90
5280;DHT22;2663;53.588;10.010;2024-01-10T10:16:02;0.70;99.90
5280;DHT22;2663;53.588;10.010;2024-01-10T10:18:30;0.30;99.90
5280;DHT22;2663;53.588;10.010;2024-01-10T10:23:34;-0.10;99.90
5280;DHT22;2663;53.588;10.010;2024-01-10T10:26:10;-0.20;99.90
5280;DHT22;2663;53.588;10.010;2024-01-10T10:28:37;-0.40;99.90
5280;DHT22;2663;53.588;10.010;2024-01-10T10:31:04;-0.70;99.90
5280;DHT22;2663;53.588;10.010;2024-01-10T10:33:32;-0.60;99.90
5280;DHT22;2663;53.588;10.010;2024-01-10T10:35:59;-0.70;99.90
5280;DHT22;2663;53.588;10.010;2024-01-10T10:38:26;-0.50;99.90
5280;DHT22;2663;53.588;10.010;2024-01-10T10:40:53;-0.40;99.90
5280;DHT22;2663;53.588;10.010;2024-01-10T10:43:21;-0.60;99.90
5280;DHT22;2663;53.588;10.010;2024-01-10T10:45:49;-0.60;99.90
5280;DHT22;2663;53.588;10.010;2024-01-10T10:48:20;-0.40;99.90
5280;DHT22;2663;53.588;10.010;2024-01-10T10:51:12;-2.00;99.90
5280;DHT22;2663;53.588;10.010;2024-01-10T10:53:43;-0.30;99.90
5280;DHT22;2663;53.588;10.010;2024-01-10T10:56:12;0.00;99.90
5280;DHT22;2663;53.588;10.010;2024-01-10T10:58:41;0.30;99.90
5280;DHT22;2663;53.588;10.010;2024-01-10T11:01:09;0.10;99.90
5280;DHT22;2663;53.588;10.010;2024-01-10T11:03:39;0.20;99.90
5280;DHT22;2663;53.588;10.010;2024-01-10T11:06:14;-0.10;99.90
5280;DHT22;2663;53.588;10.010;2024-01-10T11:08:53;-0.10;99.90
5280;DHT22;2663;53.588;10.010;2024-01-10T11:11:57;-0.30;99.90
5280;DHT22;2663;53.588;10.010;2024-01-10T11:17:54;-0.40;99.90
5280;DHT22;2663;53.588;10.010;2024-01-10T11:26:00;-1.00;99.90
5280;DHT22;2663;53.588;10.010;2024-01-10T11:28:31;-0.80;99.90
5280;DHT22;2663;53.588;10.010;2024-01-10T11:30:58;-0.60;99.90
5280;DHT22;2663;53.588;10.010;2024-01-10T11:33:31;-0.40;99.90
5280;DHT22;2663;53.588;10.010;2024-01-10T11:36:16;-0.30;99.90
5280;DHT22;2663;53.588;10.010;2024-01-10T11:41:30;0.10;99.90
5280;DHT22;2663;53.588;10.010;2024-01-10T11:46:50;0.10;99.90
5280;DHT22;2663;53.588;10.010;2024-01-10T11:49:20;-0.30;99.90
5280;DHT22;2663;53.588;10.010;2024-01-10T11:51:57;-0.70;99.90
5280;DHT22;2663;53.588;10.010;2024-01-10T11:57:27;-0.90;99.90
5280;DHT22;2663;53.588;10.010;2024-01-10T11:59:57;-0.70;99.90
5280;DHT22;2663;53.588;10.010;2024-01-10T12:02:28;-0.60;99.90
5280;DHT22;2663;53.588;10.010;2024-01-10T12:04:56;-0.60;99.90
5280;DHT22;2663;53.588;10.010;2024-01-10T12:07:23;-0.70;99.90
5280;DHT22;2663;53.588;10.010;2024-01-10T12:09:54;-0.80;99.90
5280;DHT22;2663;53.588;10.010;2024-01-10T12:12:21;-0.90;99.90
5280;DHT22;2663;53.588;10.010;2024-01-10T12:14:50;-0.90;99.90
5280;DHT22;2663;53.588;10.010;2024-01-10T12:17:17;-0.90;99.90
5280;DHT22;2663;53.588;10.010;2024-01-10T12:19:45;-1.10;99.90
5280;DHT22;2663;53.588;10.010;2024-01-10T12:22:16;-1.00;99.90
5280;DHT22;2663;53.588;10.010;2024-01-10T12:24:47;-0.80;99.90
5280;DHT22;2663;53.588;10.010;2024-01-10T12:27:21;-0.50;99.90
5280;DHT22;2663;53.588;10.010;2024-01-10T12:29:51;-0.40;99.90
5280;DHT22;2663;53.588;10.010;2024-01-10T12:32:20;-0.40;99.90
5280;DHT22;2663;53.588;10.010;2024-01-10T12:35:03;-0.40;99.90
5280;DHT22;2663;53.588;10.010;2024-01-10T12:37:31;-0.50;99.90
5280;DHT22;2663;53.588;10.010;2024-01-10T12:39:57;-0.40;99.90
5280;DHT22;2663;53.588;10.010;2024-01-10T12:42:24;-0.20;99.90
5280;DHT22;2663;53.588;10.010;2024-01-10T12:44:51;-0.10;99.90
5280;DHT22;2663;53.588;10.010;2024-01-10T12:47:21;0.10;99.90
5280;DHT22;2663;53.588;10.010;2024-01-10T12:49:49;0.20;99.90
5280;DHT22;2663;53.588;10.010;2024-01-10T12:52:16;0.30;99.90
5280;DHT22;2663;53.588;10.010;2024-01-10T12:54:47;0.30;99.90
5280;DHT22;2663;53.588;10.010;2024-01-10T12:57:14;0.30;99.90
5280;DHT22;2663;53.588;10.010;2024-01-10T12:59:41;0.20;99.90
5280;DHT22;2663;53.588;10.010;2024-01-10T13:02:07;0.10;99.90
5280;DHT22;2663;53.588;10.010;2024-01-10T13:04:34;-0.10;99.90
5280;DHT22;2663;53.588;10.010;2024-01-10T13:07:02;-0.20;99.90
5280;DHT22;2663;53.588;10.010;2024-01-10T13:09:29;-0.20;99.90
5280;DHT22;2663;53.588;10.010;2024-01-10T13:11:55;-0.40;99.90
5280;DHT22;2663;53.588;10.010;2024-01-10T13:14:22;-0.40;99.90
5280;DHT22;2663;53.588;10.010;2024-01-10T13:16:49;-0.40;99.90
5280;DHT22;2663;53.588;10.010;2024-01-10T13:19:25;-0.20;99.90
5280;DHT22;2663;53.588;10.010;2024-01-10T13:21:53;1.80;99.90
5280;DHT22;2663;53.588;10.010;2024-01-10T13:24:20;0.00;99.90
5280;DHT22;2663;53.588;10.010;2024-01-10T13:26:46;-0.30;99.90
5280;DHT22;2663;53.588;10.010;2024-01-10T13:29:15;-0.40;99.90
5280;DHT22;2663;53.588;10.010;2024-01-10T13:31:42;-0.40;99.90
5280;DHT22;2663;53.588;10.010;2024-01-10T13:34:09;-0.30;99.90
5280;DHT22;2663;53.588;10.010;2024-01-10T13:36:37;-0.40;99.90
5280;DHT22;2663;53.588;10.010;2024-01-10T13:39:04;-0.20;99.90
5280;DHT22;2663;53.588;10.010;2024-01-10T13:41:31;-0.10;99.90
5280;DHT22;2663;53.588;10.010;2024-01-10T13:43:58;0.00;99.90
5280;DHT22;2663;53.588;10.010;2024-01-10T13:46:25;-0.10;99.90
5280;DHT22;2663;53.588;10.010;2024-01-10T13:48:52;-0.20;99.90
5280;DHT22;2663;53.588;10.010;2024-01-10T13:51:19;-0.20;99.90
5280;DHT22;2663;53.588;10.010;2024-01-10T13:53:45;-0.50;99.90
5280;DHT22;2663;53.588;10.010;2024-01-10T13:56:12;-0.40;99.90
5280;DHT22;2663;53.588;10.010;2024-01-10T13:58:39;-0.20;99.90
5280;DHT22;2663;53.588;10.010;2024-01-10T14:01:06;-0.10;99.90
5280;DHT22;2663;53.588;10.010;2024-01-10T14:03:33;0.00;99.90
5280;DHT22;2663;53.588;10.010;2024-01-10T14:06:00;0.00;99.90
5280;DHT22;2663;53.588;10.010;2024-01-10T14:08:27;-1.30;99.90
5280;DHT22;2663;53.588;10.010;2024-01-10T14:10:54;-0.10;99.90
5280;DHT22;2663;53.588;10.010;2024-01-10T14:13:21;-0.20;99.90
5280;DHT22;2663;53.588;10.010;2024-01-10T14:15:49;-0.20;99.90
5280;DHT22;2663;53.588;10.010;2024-01-10T14:18:16;-0.20;99.90
5280;DHT22;2663;53.588;10.010;2024-01-10T14:20:43;-0.20;99.90
5280;DHT22;2663;53.588;10.010;2024-01-10T14:23:10;-0.10;99.90
5280;DHT22;2663;53.588;10.010;2024-01-10T14:25:37;0.00;99.90
5280;DHT22;2663;53.588;10.010;2024-01-10T14:28:04;1.90;99.90
5280;DHT22;2663;53.588;10.010;2024-01-10T14:30:30;0.10;99.90
5280;DHT22;2663;53.588;10.010;2024-01-10T14:32:59;0.20;99.90
5280;DHT22;2663;53.588;10.010;2024-01-10T14:35:26;0.00;99.90
5280;DHT22;2663;53.588;10.010;2024-01-10T14:37:53;0.00;99.90
5280;DHT22;2663;53.588;10.010;2024-01-10T14:40:20;0.00;99.90
5280;DHT22;2663;53.588;10.010;2024-01-10T14:42:50;0.20;99.90
5280;DHT22;2663;53.588;10.010;2024-01-10T14:45:17;0.00;99.90
5280;DHT22;2663;53.588;10.010;2024-01-10T14:47:43;-0.10;99.90
5280;DHT22;2663;53.588;10.010;2024-01-10T14:50:10;-0.20;99.90
5280;DHT22;2663;53.588;10.010;2024-01-10T14:52:38;-0.20;99.90
5280;DHT22;2663;53.588;10.010;2024-01-10T14:55:04;-0.20;99.90
5280;DHT22;2663;53.588;10.010;2024-01-10T14:57:31;-0.30;99.90
5280;DHT22;2663;53.588;10.010;2024-01-10T14:59:59;-0.40;99.90
5280;DHT22;2663;53.588;10.010;2024-01-10T15:02:26;-0.30;99.90
5280;DHT22;2663;53.588;10.010;2024-01-10T15:04:53;-0.20;99.90
5280;DHT22;2663;53.588;10.010;2024-01-10T15:07:20;-0.10;99.90
5280;DHT22;2663;53.588;10.010;2024-01-10T15:09:47;-0.40;99.90
5280;DHT22;2663;53.588;10.010;2024-01-10T15:12:14;-0.30;99.90
5280;DHT22;2663;53.588;10.010;2024-01-10T15:14:41;-0.30;99.90
5280;DHT22;2663;53.588;10.010;2024-01-10T15:17:08;-0.40;99.90
5280;DHT22;2663;53.588;10.010;2024-01-10T15:19:37;-0.40;99.90
5280;DHT22;2663;53.588;10.010;2024-01-10T15:22:04;-0.50;99.90
5280;DHT22;2663;53.588;10.010;2024-01-10T15:24:32;-0.40;99.90
5280;DHT22;2663;53.588;10.010;2024-01-10T15:26:59;-0.50;99.90
5280;DHT22;2663;53.588;10.010;2024-01-10T15:29:29;-0.50;99.90
5280;DHT22;2663;53.588;10.010;2024-01-10T15:31:57;-0.30;99.90
5280;DHT22;2663;53.588;10.010;2024-01-10T15:34:24;-0.20;99.90
5280;DHT22;2663;53.588;10.010;2024-01-10T15:36:51;-0.30;99.90
5280;DHT22;2663;53.588;10.010;2024-01-10T15:39:19;-0.40;99.90
5280;DHT22;2663;53.588;10.010;2024-01-10T15:41:50;-0.40;99.90
5280;DHT22;2663;53.588;10.010;2024-01-10T15:44:17;-0.30;99.90
5280;DHT22;2663;53.588;10.010;2024-01-10T15:46:44;-0.40;99.90
5280;DHT22;2663;53.588;10.010;2024-01-10T15:49:11;-0.50;99.90
5280;DHT22;2663;53.588;10.010;2024-01-10T15:51:39;-0.60;99.90
5280;DHT22;2663;53.588;10.010;2024-01-10T15:54:06;-0.50;99.90
5280;DHT22;2663;53.588;10.010;2024-01-10T15:56:32;-0.40;99.90
5280;DHT22;2663;53.588;10.010;2024-01-10T15:59:00;-0.30;99.90
5280;DHT22;2663;53.588;10.010;2024-01-10T16:01:27;-0.20;99.90
5280;DHT22;2663;53.588;10.010;2024-01-10T16:03:54;-0.20;99.90
5280;DHT22;2663;53.588;10.010;2024-01-10T16:06:21;-0.30;99.90
5280;DHT22;2663;53.588;10.010;2024-01-10T16:08:48;-0.30;99.90
5280;DHT22;2663;53.588;10.010;2024-01-10T16:11:14;-0.10;99.90